METAR πλησιέστερων αεροδρομίων

 

LGIR - Iraklion Airport
Απόσταση από το σταθμό: ΒΔ 62km
Ενημερώθηκε: 20/01/2020 00:20
Σχεδόν νεφελώδης
Σχεδόν νεφελώδης
 Ανεμος από ΒΒΔ
Ανεμος: ΒΒΔ 33 km/h
Θερμοκρασία: 12°C
Σημείο Δρόσου: 6°C
Υγρασία: 67%
Βαρόμετρο: 1025 hPa
Νέφη: Σχεδόν νεφελώδης
Ορατότητα: 10 km
Λεπτομέρειες νεφών: Λίγα σύννεφα 610 m
Σχεδόν νεφελώδης 762 m
2020/01/19 22:20 LGIR 192220Z 34018KT 9999 FEW020 BKN025 12/06 Q1025 NOSIG
LGSA - Souda/Chania Airport
Απόσταση από το σταθμό: ΔΒΔ 154km
Ενημερώθηκε: 20/01/2020 00:20
Σχεδόν νεφελώδης
Σχεδόν νεφελώδης
 Ανεμος από calm
Ανεμος: Απνοια
Θερμοκρασία: 10°C
Σημείο Δρόσου: 6°C
Υγρασία: 76%
Βαρόμετρο: 1025 hPa
Νέφη: Σχεδόν νεφελώδης
Ορατότητα: 10 km
Λεπτομέρειες νεφών: Λίγα σύννεφα 610 m
Σχεδόν νεφελώδης 914 m
Σχεδόν νεφελώδης 2743 m
2020/01/19 22:20 LGSA 192220Z 00000KT 9999 FEW020 BKN030 BKN090 10/06 Q1025